SWA912 KMCO-MWCR
Flight info
| Callsign | SWA912 |
|---|---|
| Flight time | 1h 27m |
| Altitude | 33000 |
| Route | FSHUN4 PLUMR DCT FEMID Q79 VAULT/N0453F340 Q79 MCLAW Y442 FUNDI/N0455F350 UM335 ALVEK UM328 UCL/N0456F340 DCT LACET L465 GCM DCT |
| Aircraft | B737/M-SDE2E3FGHIRWXY/LB1 |
Departure
| Time | 2026-05-04 16:35 |
|---|---|
| Airport | Orlando International Airport (KMCO) |
Arrival
| Time | 2026-05-04 18:03 |
|---|---|
| Airport | Owen Roberts International Airport (MWCR) |
| Time | Latitude | Longitude | Altitude | Speed | Heading |
|---|---|---|---|---|---|
| 2026-05-04 16:04 | 28.43619 | -81.30193 | 93 ft | 0 kts | 158° |
| 2026-05-04 16:20 | 28.43640 | -81.30203 | 96 ft | 4 kts | 158° |
| 2026-05-04 16:20 | 28.43670 | -81.30231 | 94 ft | 3 kts | 82° |
| 2026-05-04 16:21 | 28.43667 | -81.30253 | 93 ft | 0 kts | 81° |
| 2026-05-04 16:24 | 28.43681 | -81.30242 | 93 ft | 3 kts | 1° |
| 2026-05-04 16:25 | 28.43811 | -81.30256 | 97 ft | 15 kts | 359° |
| 2026-05-04 16:26 | 28.43824 | -81.29868 | 95 ft | 16 kts | 139° |
| 2026-05-04 16:26 | 28.43477 | -81.29805 | 95 ft | 18 kts | 179° |
| 2026-05-04 16:27 | 28.43239 | -81.29802 | 96 ft | 17 kts | 180° |
| 2026-05-04 16:28 | 28.42878 | -81.29798 | 96 ft | 16 kts | 179° |
| 2026-05-04 16:28 | 28.42554 | -81.29796 | 96 ft | 15 kts | 179° |
| 2026-05-04 16:29 | 28.42076 | -81.29791 | 95 ft | 20 kts | 179° |
| 2026-05-04 16:30 | 28.41683 | -81.29787 | 95 ft | 18 kts | 179° |
| 2026-05-04 16:31 | 28.41433 | -81.29784 | 96 ft | 19 kts | 179° |
| 2026-05-04 16:31 | 28.41055 | -81.29781 | 93 ft | 17 kts | 179° |
| 2026-05-04 16:32 | 28.40820 | -81.29679 | 94 ft | 9 kts | 89° |
| 2026-05-04 16:33 | 28.40821 | -81.29665 | 93 ft | 0 kts | 89° |
| 2026-05-04 16:33 | 28.40821 | -81.29660 | 93 ft | 4 kts | 90° |
| 2026-05-04 16:34 | 28.40850 | -81.29557 | 92 ft | 0 kts | 1° |
| 2026-05-04 16:34 | 28.40940 | -81.29561 | 94 ft | 40 kts | 358° |
| 2026-05-04 16:35 | 28.43537 | -81.29595 | 248 ft | 182 kts | 1° |
| 2026-05-04 16:35 | 28.47314 | -81.29810 | 2143 ft | 205 kts | 352° |
| 2026-05-04 16:36 | 28.48802 | -81.30169 | 2432 ft | 231 kts | 351° |
| 2026-05-04 16:36 | 28.52040 | -81.31035 | 4088 ft | 245 kts | 343° |
| 2026-05-04 16:37 | 28.54191 | -81.34213 | 5361 ft | 280 kts | 278° |
| 2026-05-04 16:37 | 28.54036 | -81.36444 | 6238 ft | 284 kts | 252° |
| 2026-05-04 16:37 | 28.51566 | -81.39832 | 8144 ft | 285 kts | 217° |
| 2026-05-04 16:38 | 28.48308 | -81.42527 | 9997 ft | 294 kts | 216° |
| 2026-05-04 16:39 | 28.42962 | -81.47046 | 11548 ft | 346 kts | 219° |
| 2026-05-04 16:39 | 28.39180 | -81.50324 | 13674 ft | 340 kts | 219° |
| 2026-05-04 16:40 | 28.35157 | -81.53350 | 15200 ft | 358 kts | 203° |
| 2026-05-04 16:40 | 28.30152 | -81.54004 | 16005 ft | 369 kts | 179° |
| 2026-05-04 16:41 | 28.25802 | -81.53578 | 16444 ft | 380 kts | 178° |
| 2026-05-04 16:41 | 28.17846 | -81.52774 | 18805 ft | 389 kts | 179° |
| 2026-05-04 16:42 | 28.09604 | -81.52026 | 20825 ft | 403 kts | 180° |
| 2026-05-04 16:43 | 28.03944 | -81.51516 | 22078 ft | 412 kts | 181° |
| 2026-05-04 16:43 | 27.98175 | -81.51007 | 23184 ft | 422 kts | 181° |
| 2026-05-04 16:43 | 27.95237 | -81.50778 | 23757 ft | 422 kts | 186° |
| 2026-05-04 16:44 | 27.85160 | -81.55995 | 25901 ft | 403 kts | 224° |
| 2026-05-04 16:45 | 27.80716 | -81.59899 | 26970 ft | 407 kts | 224° |
| 2026-05-04 16:46 | 27.73860 | -81.65789 | 28355 ft | 415 kts | 225° |
| 2026-05-04 16:46 | 27.68499 | -81.68544 | 29243 ft | 446 kts | 200° |
| 2026-05-04 16:47 | 27.62077 | -81.68532 | 29886 ft | 477 kts | 181° |
| 2026-05-04 16:47 | 27.55509 | -81.67425 | 31063 ft | 473 kts | 180° |
| 2026-05-04 16:48 | 27.45749 | -81.65790 | 32433 ft | 471 kts | 181° |
| 2026-05-04 16:48 | 27.42507 | -81.65283 | 32901 ft | 469 kts | 181° |
| 2026-05-04 16:49 | 27.36024 | -81.64299 | 33105 ft | 471 kts | 181° |
| 2026-05-04 16:49 | 27.29580 | -81.63327 | 33107 ft | 465 kts | 181° |
| 2026-05-04 16:50 | 27.16739 | -81.61399 | 33116 ft | 467 kts | 181° |
| 2026-05-04 16:51 | 27.07059 | -81.59950 | 33105 ft | 469 kts | 181° |
| 2026-05-04 16:52 | 26.94093 | -81.58013 | 33102 ft | 471 kts | 181° |
| 2026-05-04 16:53 | 26.84355 | -81.56544 | 33094 ft | 471 kts | 181° |
| 2026-05-04 16:54 | 26.71387 | -81.54599 | 33092 ft | 469 kts | 181° |
| 2026-05-04 16:55 | 26.52100 | -81.51727 | 33090 ft | 467 kts | 180° |
| 2026-05-04 16:56 | 26.35978 | -81.49335 | 33079 ft | 468 kts | 180° |
| 2026-05-04 16:57 | 26.26291 | -81.47891 | 33073 ft | 468 kts | 180° |
| 2026-05-04 16:58 | 26.13374 | -81.45981 | 33073 ft | 468 kts | 180° |
| 2026-05-04 17:00 | 25.94196 | -81.40046 | 33068 ft | 479 kts | 170° |
| 2026-05-04 17:01 | 25.78351 | -81.34686 | 33069 ft | 475 kts | 171° |
| 2026-05-04 17:02 | 25.65715 | -81.30475 | 33067 ft | 474 kts | 171° |
| 2026-05-04 17:03 | 25.56257 | -81.27325 | 33064 ft | 474 kts | 171° |
| 2026-05-04 17:03 | 25.46779 | -81.24162 | 33073 ft | 475 kts | 170° |
| 2026-05-04 17:04 | 25.34088 | -81.19940 | 33056 ft | 474 kts | 171° |
| 2026-05-04 17:05 | 25.21530 | -81.15770 | 33057 ft | 472 kts | 170° |
| 2026-05-04 17:06 | 25.12114 | -81.12654 | 33052 ft | 471 kts | 171° |
| 2026-05-04 17:07 | 25.03753 | -81.09889 | 33058 ft | 471 kts | 171° |
| 2026-05-04 17:07 | 24.96411 | -81.07461 | 33058 ft | 471 kts | 171° |
| 2026-05-04 17:08 | 24.87007 | -81.04365 | 33061 ft | 471 kts | 171° |
| 2026-05-04 17:09 | 24.80734 | -81.02294 | 33051 ft | 471 kts | 171° |
| 2026-05-04 17:09 | 24.74403 | -81.00922 | 33038 ft | 456 kts | 186° |
| 2026-05-04 17:10 | 24.58831 | -81.01614 | 33052 ft | 448 kts | 189° |
| 2026-05-04 17:11 | 24.52583 | -81.01761 | 33040 ft | 450 kts | 187° |
| 2026-05-04 17:12 | 24.43181 | -81.01608 | 33050 ft | 451 kts | 187° |
| 2026-05-04 17:13 | 24.27504 | -81.01443 | 33054 ft | 450 kts | 187° |
| 2026-05-04 17:14 | 24.14954 | -81.01330 | 33053 ft | 451 kts | 187° |
| 2026-05-04 17:15 | 24.05563 | -81.01246 | 33037 ft | 452 kts | 187° |
| 2026-05-04 17:16 | 23.93029 | -81.00966 | 33038 ft | 450 kts | 185° |
| 2026-05-04 17:17 | 23.80577 | -81.00360 | 33033 ft | 446 kts | 185° |
| 2026-05-04 17:18 | 23.68175 | -80.99826 | 33051 ft | 447 kts | 185° |
| 2026-05-04 17:19 | 23.55715 | -80.99303 | 33030 ft | 449 kts | 185° |
| 2026-05-04 17:20 | 23.43233 | -80.98776 | 33031 ft | 450 kts | 185° |
| 2026-05-04 17:20 | 23.33838 | -80.98369 | 33022 ft | 450 kts | 185° |
| 2026-05-04 17:21 | 23.21326 | -80.97850 | 33025 ft | 449 kts | 185° |
| 2026-05-04 17:22 | 23.16144 | -80.97641 | 33031 ft | 448 kts | 185° |
| 2026-05-04 17:23 | 23.03711 | -80.97251 | 33020 ft | 441 kts | 191° |
| 2026-05-04 17:23 | 22.97858 | -80.98641 | 33028 ft | 426 kts | 206° |
| 2026-05-04 17:24 | 22.95082 | -80.99763 | 33040 ft | 425 kts | 207° |
| 2026-05-04 17:25 | 22.83982 | -81.04311 | 33033 ft | 428 kts | 206° |
| 2026-05-04 17:26 | 22.72799 | -81.08791 | 33024 ft | 429 kts | 206° |
| 2026-05-04 17:27 | 22.58809 | -81.14379 | 33026 ft | 430 kts | 206° |
| 2026-05-04 17:28 | 22.47584 | -81.18857 | 33029 ft | 429 kts | 206° |
| 2026-05-04 17:29 | 22.30824 | -81.25514 | 33043 ft | 426 kts | 206° |
| 2026-05-04 17:31 | 22.16894 | -81.31046 | 33037 ft | 428 kts | 206° |
| 2026-05-04 17:32 | 22.02890 | -81.36585 | 33033 ft | 430 kts | 206° |
| 2026-05-04 17:33 | 21.91644 | -81.41028 | 33036 ft | 431 kts | 205° |
| 2026-05-04 17:34 | 21.80412 | -81.45454 | 33037 ft | 430 kts | 205° |
| 2026-05-04 17:35 | 21.66350 | -81.50998 | 33040 ft | 431 kts | 205° |
| 2026-05-04 17:36 | 21.60573 | -81.52813 | 33050 ft | 438 kts | 194° |
| 2026-05-04 17:36 | 21.54408 | -81.52976 | 33062 ft | 448 kts | 182° |
| 2026-05-04 17:37 | 21.48219 | -81.52498 | 33051 ft | 448 kts | 182° |
| 2026-05-04 17:37 | 21.41963 | -81.52008 | 33037 ft | 448 kts | 182° |
| 2026-05-04 17:38 | 21.35799 | -81.51557 | 33047 ft | 446 kts | 182° |
| 2026-05-04 17:38 | 21.29616 | -81.51123 | 33038 ft | 445 kts | 182° |
| 2026-05-04 17:39 | 21.20336 | -81.50472 | 33047 ft | 446 kts | 182° |
| 2026-05-04 17:39 | 21.14147 | -81.50036 | 33032 ft | 446 kts | 182° |
| 2026-05-04 17:40 | 21.07948 | -81.49600 | 33038 ft | 447 kts | 182° |
| 2026-05-04 17:40 | 21.01731 | -81.49161 | 33029 ft | 449 kts | 181° |
| 2026-05-04 17:41 | 20.95495 | -81.48724 | 33041 ft | 449 kts | 182° |
| 2026-05-04 17:41 | 20.89247 | -81.48291 | 33034 ft | 450 kts | 181° |
| 2026-05-04 17:42 | 20.82966 | -81.47848 | 32203 ft | 454 kts | 181° |
| 2026-05-04 17:42 | 20.79822 | -81.47630 | 31478 ft | 453 kts | 181° |
| 2026-05-04 17:42 | 20.76696 | -81.47410 | 30927 ft | 447 kts | 181° |
| 2026-05-04 17:43 | 20.73606 | -81.47191 | 30363 ft | 443 kts | 181° |
| 2026-05-04 17:43 | 20.70548 | -81.46976 | 29807 ft | 438 kts | 181° |
| 2026-05-04 17:43 | 20.67519 | -81.46766 | 29236 ft | 435 kts | 181° |
| 2026-05-04 17:43 | 20.64515 | -81.46559 | 28664 ft | 431 kts | 180° |
| 2026-05-04 17:44 | 20.61536 | -81.46354 | 28091 ft | 427 kts | 180° |
| 2026-05-04 17:44 | 20.58582 | -81.46148 | 27522 ft | 424 kts | 180° |
| 2026-05-04 17:44 | 20.55689 | -81.45945 | 26968 ft | 421 kts | 180° |
| 2026-05-04 17:44 | 20.52784 | -81.45744 | 26390 ft | 417 kts | 180° |
| 2026-05-04 17:45 | 20.49902 | -81.45547 | 25839 ft | 414 kts | 180° |
| 2026-05-04 17:45 | 20.47034 | -81.45347 | 25262 ft | 412 kts | 179° |
| 2026-05-04 17:45 | 20.44184 | -81.45148 | 24704 ft | 409 kts | 179° |
| 2026-05-04 17:45 | 20.41349 | -81.44953 | 24138 ft | 408 kts | 179° |
| 2026-05-04 17:46 | 20.38561 | -81.44756 | 23583 ft | 406 kts | 179° |
| 2026-05-04 17:46 | 20.35724 | -81.44559 | 23020 ft | 403 kts | 179° |
| 2026-05-04 17:46 | 20.32927 | -81.44367 | 22453 ft | 401 kts | 179° |
| 2026-05-04 17:46 | 20.30143 | -81.44176 | 21889 ft | 400 kts | 179° |
| 2026-05-04 17:47 | 20.27374 | -81.43983 | 21325 ft | 398 kts | 178° |
| 2026-05-04 17:47 | 20.24621 | -81.43793 | 20765 ft | 395 kts | 178° |
| 2026-05-04 17:47 | 20.21886 | -81.43604 | 20203 ft | 393 kts | 178° |
| 2026-05-04 17:47 | 20.19168 | -81.43413 | 19643 ft | 390 kts | 178° |
| 2026-05-04 17:48 | 20.16474 | -81.43227 | 19084 ft | 387 kts | 178° |
| 2026-05-04 17:48 | 20.13801 | -81.43040 | 18526 ft | 384 kts | 178° |
| 2026-05-04 17:48 | 20.11147 | -81.42857 | 17968 ft | 381 kts | 178° |
| 2026-05-04 17:48 | 20.08508 | -81.42674 | 17421 ft | 378 kts | 178° |
| 2026-05-04 17:49 | 20.05893 | -81.42490 | 16862 ft | 375 kts | 178° |
| 2026-05-04 17:49 | 20.03296 | -81.42310 | 16315 ft | 373 kts | 178° |
| 2026-05-04 17:49 | 20.00718 | -81.42136 | 15765 ft | 369 kts | 179° |
| 2026-05-04 17:49 | 19.98178 | -81.42293 | 15203 ft | 364 kts | 191° |
| 2026-05-04 17:50 | 19.95701 | -81.42779 | 14685 ft | 361 kts | 193° |
| 2026-05-04 17:50 | 19.93254 | -81.43327 | 14129 ft | 358 kts | 193° |
| 2026-05-04 17:50 | 19.90829 | -81.43880 | 13588 ft | 354 kts | 193° |
| 2026-05-04 17:50 | 19.88429 | -81.44416 | 13053 ft | 352 kts | 193° |
| 2026-05-04 17:51 | 19.86044 | -81.44936 | 12527 ft | 348 kts | 192° |
| 2026-05-04 17:51 | 19.83682 | -81.45443 | 11988 ft | 344 kts | 192° |
| 2026-05-04 17:51 | 19.81344 | -81.45934 | 11480 ft | 341 kts | 192° |
| 2026-05-04 17:51 | 19.79029 | -81.46417 | 10955 ft | 336 kts | 191° |
| 2026-05-04 17:52 | 19.76749 | -81.46889 | 10450 ft | 332 kts | 191° |
| 2026-05-04 17:52 | 19.74523 | -81.47353 | 10317 ft | 319 kts | 191° |
| 2026-05-04 17:52 | 19.72414 | -81.47791 | 10168 ft | 306 kts | 191° |
| 2026-05-04 17:52 | 19.70361 | -81.48218 | 10034 ft | 295 kts | 191° |
| 2026-05-04 17:53 | 19.68374 | -81.48628 | 9743 ft | 289 kts | 191° |
| 2026-05-04 17:53 | 19.66450 | -81.49024 | 9637 ft | 277 kts | 191° |
| 2026-05-04 17:53 | 19.64559 | -81.49414 | 9418 ft | 272 kts | 191° |
| 2026-05-04 17:53 | 19.62706 | -81.49799 | 9068 ft | 274 kts | 191° |
| 2026-05-04 17:54 | 19.60842 | -81.50185 | 8736 ft | 272 kts | 191° |
| 2026-05-04 17:54 | 19.58986 | -81.50566 | 8376 ft | 272 kts | 190° |
| 2026-05-04 17:54 | 19.57136 | -81.50949 | 8006 ft | 270 kts | 190° |
| 2026-05-04 17:54 | 19.55293 | -81.51328 | 7648 ft | 269 kts | 190° |
| 2026-05-04 17:55 | 19.53456 | -81.51706 | 7290 ft | 268 kts | 190° |
| 2026-05-04 17:55 | 19.51624 | -81.52084 | 6930 ft | 267 kts | 190° |
| 2026-05-04 17:55 | 19.49804 | -81.52458 | 6567 ft | 266 kts | 190° |
| 2026-05-04 17:55 | 19.47990 | -81.52834 | 6248 ft | 265 kts | 190° |
| 2026-05-04 17:56 | 19.46189 | -81.53206 | 5932 ft | 262 kts | 190° |
| 2026-05-04 17:56 | 19.44402 | -81.53572 | 5566 ft | 262 kts | 189° |
| 2026-05-04 17:56 | 19.42613 | -81.53937 | 5238 ft | 260 kts | 189° |
| 2026-05-04 17:56 | 19.40853 | -81.54299 | 4886 ft | 258 kts | 190° |
| 2026-05-04 17:57 | 19.39100 | -81.54661 | 4437 ft | 258 kts | 191° |
| 2026-05-04 17:57 | 19.37331 | -81.55037 | 4154 ft | 257 kts | 190° |
| 2026-05-04 17:57 | 19.35581 | -81.55396 | 3737 ft | 260 kts | 189° |
| 2026-05-04 17:57 | 19.33858 | -81.55346 | 3555 ft | 241 kts | 161° |
| 2026-05-04 17:58 | 19.32322 | -81.54872 | 3454 ft | 228 kts | 167° |
| 2026-05-04 17:58 | 19.30853 | -81.54421 | 3364 ft | 209 kts | 163° |
| 2026-05-04 17:58 | 19.29469 | -81.54107 | 3171 ft | 201 kts | 167° |
| 2026-05-04 17:58 | 19.28203 | -81.53654 | 2846 ft | 201 kts | 162° |
| 2026-05-04 17:59 | 19.26824 | -81.53385 | 2582 ft | 195 kts | 164° |
| 2026-05-04 17:59 | 19.25677 | -81.52673 | 2170 ft | 188 kts | 122° |
| 2026-05-04 17:59 | 19.25914 | -81.50027 | 2168 ft | 195 kts | 61° |
| 2026-05-04 18:00 | 19.26386 | -81.48719 | 2067 ft | 190 kts | 90° |
| 2026-05-04 18:00 | 19.26291 | -81.47401 | 1988 ft | 181 kts | 79° |
| 2026-05-04 18:00 | 19.26635 | -81.46077 | 1628 ft | 185 kts | 69° |
| 2026-05-04 18:00 | 19.27075 | -81.44866 | 1511 ft | 175 kts | 68° |
| 2026-05-04 18:01 | 19.27431 | -81.43651 | 1285 ft | 173 kts | 74° |
| 2026-05-04 18:01 | 19.27720 | -81.42415 | 1007 ft | 173 kts | 77° |
| 2026-05-04 18:01 | 19.27992 | -81.41208 | 732 ft | 164 kts | 74° |
| 2026-05-04 18:02 | 19.28505 | -81.39046 | 474 ft | 143 kts | 75° |
| 2026-05-04 18:02 | 19.28749 | -81.38029 | 250 ft | 142 kts | 74° |
| 2026-05-04 18:02 | 19.28991 | -81.37009 | 77 ft | 142 kts | 74° |
| 2026-05-04 18:02 | 19.29217 | -81.36050 | 15 ft | 125 kts | 77° |
| 2026-05-04 18:03 | 19.29389 | -81.35316 | 14 ft | 81 kts | 76° |
| 2026-05-04 18:03 | 19.29471 | -81.34969 | 17 ft | 27 kts | 77° |
| 2026-05-04 18:03 | 19.29528 | -81.34886 | 18 ft | 14 kts | 349° |
| 2026-05-04 18:03 | 19.29558 | -81.34966 | 16 ft | 13 kts | 255° |
| 2026-05-04 18:04 | 19.29536 | -81.35058 | 15 ft | 13 kts | 256° |
| 2026-05-04 18:04 | 19.29511 | -81.35164 | 15 ft | 17 kts | 256° |
| 2026-05-04 18:04 | 19.29456 | -81.35401 | 15 ft | 16 kts | 255° |
| 2026-05-04 18:05 | 19.29429 | -81.35514 | 14 ft | 14 kts | 256° |
| 2026-05-04 18:05 | 19.29432 | -81.35577 | 16 ft | 9 kts | 313° |
| 2026-05-04 18:05 | 19.29472 | -81.35615 | 15 ft | 8 kts | 266° |
| 2026-05-04 18:05 | 19.29472 | -81.35675 | 16 ft | 8 kts | 306° |
| 2026-05-04 18:06 | 19.29515 | -81.35690 | 17 ft | 0 kts | 346° |